Time;durP1;ratioP1;P1;durP2;ratioP2;P2;SDS_P1;SDS_P2;PMS_P1;PMS_P2;Temp;Humidity;BMP_temperature;BMP_pressure;BME280_temperature;BME280_humidity;BME280_pressure;Samples;Min_cycle;Max_cycle;Signal;HPM_P1;HPM_P2
2023/07/15 00:00:43;;;;;;;1.00;1.00;;;20.90;81.20;;;;;;5032192;28;20113;-79
2023/07/15 00:03:09;;;;;;;1.50;1.40;;;20.90;81.60;;;;;;5035007;28;20558;-77
2023/07/15 00:05:35;;;;;;;1.17;1.17;;;20.80;81.70;;;;;;5033800;28;20040;-77
2023/07/15 00:08:08;;;;;;;1.50;1.40;;;20.80;82.20;;;;;;5032375;28;20145;-78
2023/07/15 00:10:36;;;;;;;1.33;1.00;;;20.80;82.50;;;;;;5030676;28;20105;-77
2023/07/15 00:13:02;;;;;;;1.10;1.10;;;20.80;82.80;;;;;;5032213;28;20022;-77
2023/07/15 00:15:28;;;;;;;1.27;1.27;;;20.80;83.00;;;;;;5031597;28;20417;-77
2023/07/15 00:17:54;;;;;;;1.05;1.05;;;20.80;83.30;;;;;;5032591;28;20100;-77
2023/07/15 00:20:20;;;;;;;0.85;0.85;;;20.70;83.80;;;;;;5032068;28;20415;-78
2023/07/15 00:22:47;;;;;;;1.10;1.10;;;20.70;84.30;;;;;;5032366;28;20363;-77
2023/07/15 00:25:19;;;;;;;0.90;0.90;;;20.60;84.70;;;;;;5027461;28;20025;-77
2023/07/15 00:27:46;;;;;;;0.95;0.95;;;20.70;85.30;;;;;;5031575;28;20071;-78
2023/07/15 00:30:14;;;;;;;1.30;1.20;;;20.60;85.70;;;;;;5022919;28;20045;-78
2023/07/15 00:32:41;;;;;;;0.93;0.93;;;20.60;86.20;;;;;;5031670;28;20024;-78
2023/07/15 00:35:28;;;;;;;1.00;1.00;;;20.60;86.60;;;;;;5046787;28;20029;-78
2023/07/15 00:38:00;;;;;;;0.98;0.98;;;20.60;87.00;;;;;;5031717;28;20032;-78
2023/07/15 00:40:27;;;;;;;1.05;1.05;;;20.70;87.40;;;;;;5030001;28;20087;-78
2023/07/15 00:43:30;;;;;;;1.30;1.20;;;20.70;87.70;;;;;;5030357;28;20033;-78
2023/07/15 00:46:14;;;;;;;0.98;0.93;;;20.60;88.10;;;;;;5031220;28;20120;-78
2023/07/15 00:49:06;;;;;;;1.40;1.30;;;20.60;88.70;;;;;;5033587;28;20103;-77
2023/07/15 00:51:37;;;;;;;1.00;1.00;;;20.50;89.20;;;;;;5028888;28;20051;-78
2023/07/15 00:54:04;;;;;;;1.15;1.15;;;20.50;89.80;;;;;;5032528;28;20037;-77
2023/07/15 00:56:32;;;;;;;0.80;0.80;;;20.50;90.10;;;;;;5032525;28;20029;-78
2023/07/15 00:58:59;;;;;;;0.93;0.93;;;20.50;90.30;;;;;;5031167;28;20048;-78
2023/07/15 01:01:24;;;;;;;0.90;0.90;;;20.50;90.50;;;;;;5031133;28;20108;-77
2023/07/15 01:03:50;;;;;;;1.33;1.23;;;20.50;90.70;;;;;;5032399;28;20068;-76
2023/07/15 01:06:16;;;;;;;0.95;0.95;;;20.50;90.90;;;;;;5031815;28;20129;-76
2023/07/15 01:08:42;;;;;;;1.05;1.05;;;20.50;91.10;;;;;;5031345;28;20055;-77
2023/07/15 01:11:10;;;;;;;1.00;1.00;;;20.40;91.30;;;;;;5034832;28;20508;-78
2023/07/15 01:13:36;;;;;;;1.05;1.00;;;20.50;91.60;;;;;;5033634;28;20021;-77
2023/07/15 01:16:01;;;;;;;1.10;1.10;;;20.40;91.80;;;;;;5033707;28;20061;-79
2023/07/15 01:18:28;;;;;;;1.10;1.10;;;20.40;92.00;;;;;;5035193;28;20438;-77
2023/07/15 01:20:58;;;;;;;1.10;1.10;;;20.40;92.20;;;;;;5034458;28;20075;-78
2023/07/15 01:23:24;;;;;;;1.13;1.10;;;20.40;92.30;;;;;;5014082;28;20431;-78
2023/07/15 01:25:50;;;;;;;1.20;1.10;;;20.40;92.50;;;;;;5014607;28;20102;-78
2023/07/15 01:28:16;;;;;;;1.00;1.00;;;20.30;92.70;;;;;;5032708;28;20037;-79
2023/07/15 01:30:41;;;;;;;0.77;0.77;;;20.30;92.90;;;;;;5033921;28;20025;-79
2023/07/15 01:33:07;;;;;;;1.00;1.00;;;20.30;93.10;;;;;;5029007;28;20045;-76
2023/07/15 01:35:33;;;;;;;0.88;0.88;;;20.30;93.30;;;;;;5031397;28;20096;-79
2023/07/15 01:37:58;;;;;;;0.80;0.80;;;20.30;93.50;;;;;;5039423;28;20037;-78
2023/07/15 01:40:24;;;;;;;0.90;0.90;;;20.30;93.50;;;;;;5047004;28;20096;-78
2023/07/15 01:42:49;;;;;;;0.98;0.98;;;20.30;93.70;;;;;;5039979;28;20386;-77
2023/07/15 01:45:15;;;;;;;0.80;0.80;;;20.20;93.80;;;;;;5052338;28;20034;-77
2023/07/15 01:47:41;;;;;;;1.00;1.00;;;20.20;94.00;;;;;;5038563;28;20088;-77
2023/07/15 01:50:08;;;;;;;1.00;1.00;;;20.30;94.10;;;;;;5037925;28;20109;-78
2023/07/15 01:52:33;;;;;;;0.90;0.90;;;20.30;94.20;;;;;;5037151;28;20071;-77
2023/07/15 01:54:59;;;;;;;1.00;1.00;;;20.30;94.20;;;;;;5035764;28;20025;-76
2023/07/15 01:57:30;;;;;;;1.60;1.48;;;20.40;94.20;;;;;;5035411;28;20395;-78
2023/07/15 01:59:59;;;;;;;1.73;1.10;;;20.40;94.20;;;;;;5035975;28;20048;-76
2023/07/15 02:02:25;;;;;;;1.40;1.30;;;20.40;94.20;;;;;;5035561;28;20026;-77
2023/07/15 02:04:51;;;;;;;1.73;1.63;;;20.40;94.10;;;;;;5050651;28;20056;-78
2023/07/15 02:07:16;;;;;;;1.67;1.58;;;20.50;94.10;;;;;;5036058;28;20041;-76
2023/07/15 02:09:42;;;;;;;1.92;1.80;;;20.50;94.10;;;;;;5038824;28;20037;-75
2023/07/15 02:12:08;;;;;;;1.83;1.73;;;20.40;94.10;;;;;;5036492;28;20026;-75
2023/07/15 02:14:36;;;;;;;1.98;1.58;;;20.40;94.20;;;;;;5035972;28;20474;-76
2023/07/15 02:17:03;;;;;;;1.40;1.30;;;20.40;94.30;;;;;;5021444;28;20366;-75
2023/07/15 02:19:32;;;;;;;1.60;1.50;;;20.40;94.40;;;;;;5037383;28;20028;-77
2023/07/15 02:21:59;;;;;;;2.00;1.90;;;20.30;94.50;;;;;;5052568;28;20109;-78
2023/07/15 02:24:25;;;;;;;1.80;1.70;;;20.30;94.60;;;;;;5034812;28;20017;-76
2023/07/15 02:26:51;;;;;;;2.00;1.80;;;20.30;94.70;;;;;;5033288;28;20027;-76
2023/07/15 02:29:17;;;;;;;2.05;1.70;;;20.30;94.80;;;;;;5032335;28;20045;-77
2023/07/15 02:31:42;;;;;;;2.00;1.90;;;20.30;94.80;;;;;;5034148;28;20036;-76
2023/07/15 02:34:08;;;;;;;1.80;1.70;;;20.30;94.80;;;;;;5032564;28;20029;-76
2023/07/15 02:36:35;;;;;;;1.65;1.60;;;20.30;94.80;;;;;;5049496;28;20227;-76
2023/07/15 02:39:01;;;;;;;2.22;2.03;;;20.30;94.80;;;;;;5053115;28;20022;-79
2023/07/15 02:41:26;;;;;;;1.70;1.60;;;20.30;94.80;;;;;;5070613;28;20041;-74
2023/07/15 02:43:52;;;;;;;1.60;1.50;;;20.20;94.90;;;;;;5056614;28;20013;-76
2023/07/15 02:46:18;;;;;;;1.50;1.40;;;20.20;95.00;;;;;;5056702;28;20029;-76
2023/07/15 02:48:43;;;;;;;1.42;1.33;;;20.20;95.10;;;;;;5055937;28;20091;-76
2023/07/15 02:51:09;;;;;;;1.55;1.30;;;20.10;95.20;;;;;;5057362;28;20033;-75
2023/07/15 02:53:35;;;;;;;1.50;1.40;;;20.20;95.30;;;;;;5063038;28;20026;-76
2023/07/15 02:56:00;;;;;;;1.05;1.05;;;20.10;95.30;;;;;;5034889;28;20014;-76
2023/07/15 02:58:26;;;;;;;1.17;1.17;;;20.10;95.40;;;;;;5034125;28;20021;-76
2023/07/15 03:00:52;;;;;;;1.40;1.40;;;20.10;95.50;;;;;;5034856;28;20063;-76
2023/07/15 03:03:18;;;;;;;1.67;1.58;;;20.10;95.60;;;;;;5034911;28;20093;-77
2023/07/15 03:05:51;;;;;;;0.95;0.95;;;20.10;95.90;;;;;;5037146;28;20027;-77
2023/07/15 03:08:16;;;;;;;1.23;1.20;;;20.10;95.70;;;;;;5034962;28;20371;-76
2023/07/15 03:10:43;;;;;;;1.25;1.25;;;20.10;95.70;;;;;;5034592;28;20036;-77
2023/07/15 03:13:09;;;;;;;2.63;1.40;;;20.10;95.60;;;;;;5033800;28;20070;-77
2023/07/15 03:15:35;;;;;;;1.25;1.25;;;20.10;95.60;;;;;;5034103;28;20212;-77
2023/07/15 03:18:02;;;;;;;1.52;1.40;;;20.10;95.60;;;;;;5034160;28;20454;-77
2023/07/15 03:20:28;;;;;;;1.20;1.20;;;20.10;95.60;;;;;;5034523;28;20056;-77
2023/07/15 03:22:54;;;;;;;1.80;1.70;;;20.10;95.60;;;;;;5035327;28;20063;-77
2023/07/15 03:25:21;;;;;;;1.35;1.27;;;20.10;95.60;;;;;;5033372;28;20499;-77
2023/07/15 03:27:47;;;;;;;1.60;1.50;;;20.10;95.50;;;;;;5032357;28;20037;-77
2023/07/15 03:30:14;;;;;;;1.50;1.40;;;20.10;95.50;;;;;;5033104;28;20029;-76
2023/07/15 03:32:41;;;;;;;1.52;1.42;;;20.00;95.50;;;;;;5032327;28;20060;-77
2023/07/15 03:35:12;;;;;;;0.93;0.93;;;20.00;95.60;;;;;;5034190;28;20492;-76
2023/07/15 03:37:39;;;;;;;1.45;1.35;;;20.00;95.70;;;;;;5034176;28;20079;-77
2023/07/15 03:40:08;;;;;;;0.90;0.90;;;20.00;95.60;;;;;;5041124;28;20037;-77
2023/07/15 03:42:34;;;;;;;1.42;1.33;;;20.00;95.70;;;;;;5040346;28;20021;-76
2023/07/15 03:45:00;;;;;;;1.10;1.10;;;20.00;95.70;;;;;;5049023;28;20021;-77
2023/07/15 03:47:26;;;;;;;1.33;1.33;;;20.00;95.70;;;;;;5060321;28;20093;-79
2023/07/15 03:49:52;;;;;;;1.17;1.17;;;20.00;95.80;;;;;;5044080;28;20449;-80
2023/07/15 03:52:17;;;;;;;1.08;1.08;;;20.00;95.90;;;;;;5044817;28;20028;-80
2023/07/15 03:54:43;;;;;;;1.33;1.25;;;20.00;95.90;;;;;;5056360;28;20074;-79
2023/07/15 03:57:11;;;;;;;1.02;1.02;;;19.90;96.00;;;;;;5038227;28;20439;-79
2023/07/15 03:59:37;;;;;;;1.00;1.00;;;19.90;96.10;;;;;;5039830;28;20104;-80
2023/07/15 04:02:03;;;;;;;1.10;1.10;;;19.90;96.10;;;;;;5045994;28;20037;-81
2023/07/15 04:04:28;;;;;;;1.10;1.10;;;19.90;96.20;;;;;;5026945;28;20104;-82
2023/07/15 04:06:55;;;;;;;0.98;0.98;;;19.90;96.20;;;;;;5022402;28;20022;-80
2023/07/15 04:09:21;;;;;;;1.15;1.13;;;19.90;96.30;;;;;;5025606;28;20034;-80
2023/07/15 04:11:47;;;;;;;0.90;0.90;;;19.90;96.20;;;;;;5037705;28;20025;-80
2023/07/15 04:14:13;;;;;;;1.58;1.10;;;20.00;96.20;;;;;;5038662;28;20021;-80
2023/07/15 04:16:39;;;;;;;1.40;1.30;;;20.00;96.10;;;;;;5037879;28;20167;-81
2023/07/15 04:19:05;;;;;;;1.70;1.60;;;20.00;96.10;;;;;;5038321;28;20034;-80
2023/07/15 04:21:31;;;;;;;1.10;1.10;;;20.00;96.10;;;;;;5037815;28;20040;-80
2023/07/15 04:23:57;;;;;;;1.33;1.27;;;20.00;96.10;;;;;;5037808;28;20545;-80
2023/07/15 04:26:25;;;;;;;1.38;1.38;;;20.00;96.00;;;;;;5038347;28;20026;-80
2023/07/15 04:28:52;;;;;;;1.27;1.20;;;20.00;95.90;;;;;;5037921;28;20343;-80
2023/07/15 04:31:18;;;;;;;1.13;1.13;;;20.00;95.80;;;;;;5037709;28;20045;-79
2023/07/15 04:33:48;;;;;;;1.48;1.40;;;20.00;95.70;;;;;;5038291;28;20052;-80
2023/07/15 04:36:15;;;;;;;1.13;1.13;;;20.10;95.60;;;;;;5036850;28;20098;-80
2023/07/15 04:38:41;;;;;;;1.23;1.23;;;20.20;95.50;;;;;;5044453;28;20028;-80
2023/07/15 04:41:07;;;;;;;1.20;1.20;;;20.20;95.40;;;;;;5036608;28;20029;-80
2023/07/15 04:43:32;;;;;;;1.67;1.58;;;20.20;95.30;;;;;;5047109;28;20057;-80
2023/07/15 04:45:59;;;;;;;1.45;1.35;;;20.30;95.20;;;;;;5047034;28;20052;-79
2023/07/15 04:48:25;;;;;;;1.25;1.25;;;;;;;;;;5041894;28;20025;-80
2023/07/15 04:50:51;;;;;;;1.50;1.40;;;20.40;94.60;;;;;;5036287;28;20033;-80
2023/07/15 04:53:17;;;;;;;1.05;1.05;;;20.50;94.60;;;;;;5038347;28;20020;-80
2023/07/15 04:55:44;;;;;;;1.13;1.05;;;20.60;94.40;;;;;;5037510;28;20514;-80
2023/07/15 04:58:11;;;;;;;1.17;1.17;;;20.60;94.20;;;;;;5036410;28;20026;-80
2023/07/15 05:00:37;;;;;;;1.10;1.10;;;20.70;93.90;;;;;;5038318;28;20123;-80
2023/07/15 05:03:06;;;;;;;1.15;1.15;;;20.80;93.70;;;;;;5037587;28;20057;-80
2023/07/15 05:05:32;;;;;;;0.93;0.93;;;20.90;93.40;;;;;;5037067;28;20160;-80
2023/07/15 05:08:12;;;;;;;1.60;1.50;;;21.00;93.10;;;;;;5038357;28;20021;-80
2023/07/15 05:10:39;;;;;;;1.10;1.10;;;21.10;92.80;;;;;;5029767;28;20042;-81
2023/07/15 05:13:06;;;;;;;1.30;1.20;;;21.30;92.60;;;;;;5038156;28;20049;-81
2023/07/15 05:15:33;;;;;;;1.05;1.05;;;21.50;92.40;;;;;;5039652;28;20029;-81
2023/07/15 05:17:59;;;;;;;1.08;1.08;;;23.30;91.90;;;;;;5039771;28;20026;-79
2023/07/15 05:20:25;;;;;;;1.10;1.10;;;26.20;84.00;;;;;;5038050;28;20021;-79
2023/07/15 05:22:51;;;;;;;1.00;1.00;;;28.60;74.00;;;;;;5038445;28;20033;-80
2023/07/15 05:25:18;;;;;;;1.10;1.10;;;;;;;;;;5039043;28;20509;-81
2023/07/15 05:27:44;;;;;;;1.10;1.10;;;31.50;60.30;;;;;;5038317;28;20544;-80
2023/07/15 05:30:10;;;;;;;0.90;0.90;;;32.70;57.10;;;;;;5038858;28;20018;-81
2023/07/15 05:32:36;;;;;;;0.90;0.90;;;34.00;54.60;;;;;;5038166;28;20026;-79
2023/07/15 05:35:02;;;;;;;1.00;1.00;;;35.20;51.50;;;;;;5035982;28;20102;-81
2023/07/15 05:37:28;;;;;;;0.90;0.90;;;36.00;48.70;;;;;;5038183;28;20057;-81
2023/07/15 05:39:53;;;;;;;0.90;0.90;;;36.50;47.50;;;;;;5038349;28;20022;-80
2023/07/15 05:42:19;;;;;;;1.08;1.08;;;37.10;46.50;;;;;;5024269;28;20034;-80
2023/07/15 05:44:45;;;;;;;1.05;1.05;;;37.60;45.40;;;;;;5016942;28;20022;-80
2023/07/15 05:47:11;;;;;;;0.88;0.88;;;38.20;44.90;;;;;;5020537;28;20255;-80
2023/07/15 05:49:39;;;;;;;1.20;1.20;;;38.60;43.70;;;;;;5024632;28;20026;-79
2023/07/15 05:52:05;;;;;;;1.08;1.08;;;38.90;42.80;;;;;;5033897;28;20033;-79
2023/07/15 05:54:31;;;;;;;0.90;0.90;;;39.20;42.40;;;;;;5034564;28;20026;-78
2023/07/15 05:56:57;;;;;;;1.10;1.10;;;39.50;41.90;;;;;;5047406;28;20037;-80
2023/07/15 05:59:22;;;;;;;0.93;0.93;;;39.80;41.70;;;;;;5053906;28;20033;-79
2023/07/15 06:01:48;;;;;;;0.70;0.70;;;40.00;41.30;;;;;;5054152;28;20052;-78
2023/07/15 06:04:14;;;;;;;0.80;0.80;;;40.20;40.80;;;;;;5050029;28;20075;-79
2023/07/15 06:06:40;;;;;;;1.00;1.00;;;40.30;40.40;;;;;;5052669;28;20093;-79
2023/07/15 06:09:06;;;;;;;1.00;1.00;;;40.40;40.30;;;;;;5044254;28;20508;-80
2023/07/15 06:11:32;;;;;;;0.80;0.80;;;40.60;40.30;;;;;;5038567;28;20030;-81
2023/07/15 06:14:03;;;;;;;0.80;0.80;;;40.70;40.30;;;;;;5039286;28;20033;-81
2023/07/15 06:16:29;;;;;;;0.90;0.90;;;41.00;39.70;;;;;;5038814;28;20028;-81
2023/07/15 06:18:55;;;;;;;0.90;0.90;;;41.10;39.50;;;;;;5038962;28;20029;-80
2023/07/15 06:21:20;;;;;;;1.10;1.10;;;41.10;39.40;;;;;;5042269;28;20024;-81
2023/07/15 06:23:46;;;;;;;1.00;1.00;;;41.00;39.30;;;;;;5047742;28;20040;-80
2023/07/15 06:26:12;;;;;;;0.90;0.90;;;41.10;39.20;;;;;;5046250;28;20025;-81
2023/07/15 06:28:39;;;;;;;1.20;1.20;;;41.20;38.90;;;;;;5050711;28;20025;-80
2023/07/15 06:31:09;;;;;;;1.00;1.00;;;41.00;38.70;;;;;;5053801;28;20022;-80
2023/07/15 06:33:35;;;;;;;1.20;1.20;;;41.00;39.00;;;;;;5050728;28;20029;-80
2023/07/15 06:36:02;;;;;;;1.13;1.13;;;41.00;39.10;;;;;;5043567;28;20036;-81
2023/07/15 06:38:28;;;;;;;0.85;0.85;;;41.30;38.90;;;;;;5049961;28;20056;-81
2023/07/15 06:40:54;;;;;;;1.00;1.00;;;41.40;38.50;;;;;;5054707;28;20033;-81
2023/07/15 06:43:20;;;;;;;0.90;0.90;;;41.50;38.20;;;;;;5050272;28;20033;-81
2023/07/15 06:45:46;;;;;;;1.20;1.20;;;41.10;38.40;;;;;;5044376;28;20544;-81
2023/07/15 06:48:12;;;;;;;1.00;1.00;;;41.20;38.50;;;;;;5044491;28;20060;-81
2023/07/15 06:50:38;;;;;;;0.95;0.95;;;41.30;38.40;;;;;;5045054;28;20477;-81
2023/07/15 06:53:04;;;;;;;1.02;1.02;;;41.30;38.20;;;;;;5041809;28;20025;-82
2023/07/15 06:55:30;;;;;;;1.02;1.02;;;41.30;38.40;;;;;;5041850;28;20049;-82
2023/07/15 06:57:56;;;;;;;0.90;0.90;;;41.50;38.30;;;;;;5044019;28;20021;-81
2023/07/15 07:00:22;;;;;;;1.30;1.30;;;41.50;38.40;;;;;;5040326;28;20045;-81
2023/07/15 07:02:48;;;;;;;1.20;1.20;;;41.20;38.40;;;;;;5041817;28;20048;-80
2023/07/15 07:05:15;;;;;;;1.20;1.20;;;41.20;38.60;;;;;;5041530;28;20083;-81
2023/07/15 07:07:41;;;;;;;1.27;1.27;;;41.10;38.50;;;;;;5041532;28;20074;-81
2023/07/15 07:10:08;;;;;;;1.30;1.30;;;40.90;38.50;;;;;;5040432;28;20486;-81
2023/07/15 07:12:33;;;;;;;1.15;1.15;;;40.80;38.60;;;;;;5024008;28;20026;-80
2023/07/15 07:14:59;;;;;;;1.20;1.20;;;40.60;38.70;;;;;;5024703;28;20118;-80
2023/07/15 07:17:25;;;;;;;1.13;1.13;;;40.60;38.80;;;;;;5046856;28;20028;-81
2023/07/15 07:19:50;;;;;;;1.15;1.15;;;40.30;38.70;;;;;;5042198;28;20032;-79
2023/07/15 07:22:16;;;;;;;1.60;1.50;;;38.50;39.40;;;;;;5040945;28;20026;-79
2023/07/15 07:24:42;;;;;;;1.48;1.48;;;35.80;42.10;;;;;;5038399;28;20102;-79
2023/07/15 07:27:08;;;;;;;1.73;1.30;;;33.60;45.10;;;;;;5038350;28;20066;-79
2023/07/15 07:29:34;;;;;;;1.42;1.42;;;31.90;47.80;;;;;;5036025;28;20025;-80
2023/07/15 07:32:00;;;;;;;1.70;1.60;;;30.70;50.20;;;;;;5041673;28;20503;-79
2023/07/15 07:34:25;;;;;;;1.70;1.67;;;29.70;51.80;;;;;;5037561;28;20022;-79
2023/07/15 07:36:51;;;;;;;1.73;1.63;;;29.10;53.20;;;;;;5038222;28;20227;-79
2023/07/15 07:39:17;;;;;;;1.92;1.75;;;28.70;54.10;;;;;;5039270;28;20026;-79
2023/07/15 07:41:42;;;;;;;1.70;1.60;;;28.50;54.20;;;;;;5029932;28;20371;-79
2023/07/15 07:44:11;;;;;;;1.70;1.60;;;28.40;54.20;;;;;;5018265;28;20034;-78
2023/07/15 07:46:36;;;;;;;1.20;1.20;;;28.20;54.10;;;;;;5019043;28;20049;-79
2023/07/15 07:49:02;;;;;;;1.65;1.55;;;28.20;54.40;;;;;;5024515;28;20044;-79
2023/07/15 07:51:35;;;;;;;1.55;1.45;;;28.10;54.40;;;;;;5041058;28;20025;-79
2023/07/15 07:54:00;;;;;;;1.40;1.30;;;28.10;54.10;;;;;;5048176;28;20018;-79
2023/07/15 07:56:27;;;;;;;1.77;1.67;;;28.10;53.80;;;;;;5050839;28;20036;-79
2023/07/15 07:58:57;;;;;;;1.48;1.38;;;28.10;54.30;;;;;;5052226;28;20021;-79
2023/07/15 08:01:23;;;;;;;1.55;1.45;;;28.00;54.10;;;;;;5050842;28;20052;-78
2023/07/15 08:03:49;;;;;;;1.85;1.75;;;28.20;53.70;;;;;;5048821;28;20109;-79
2023/07/15 08:06:15;;;;;;;2.00;1.80;;;28.30;53.20;;;;;;5039858;28;20496;-81
2023/07/15 08:08:41;;;;;;;1.90;1.70;;;28.30;52.60;;;;;;5040039;28;20029;-81
2023/07/15 08:11:07;;;;;;;1.95;1.50;;;28.40;51.80;;;;;;5033980;28;20022;-80
2023/07/15 08:13:33;;;;;;;1.83;1.73;;;28.50;49.80;;;;;;5024954;28;20096;-80
2023/07/15 08:15:59;;;;;;;1.90;1.30;;;28.60;49.60;;;;;;5027801;28;20057;-79
2023/07/15 08:18:25;;;;;;;1.83;1.55;;;28.70;49.90;;;;;;5028289;28;20056;-81
2023/07/15 08:20:51;;;;;;;1.65;1.55;;;28.70;50.30;;;;;;5030871;28;20026;-78
2023/07/15 08:23:20;;;;;;;1.40;1.40;;;28.60;50.40;;;;;;5037332;28;20462;-81
2023/07/15 08:25:46;;;;;;;1.42;1.42;;;28.70;49.60;;;;;;5039662;28;20125;-81
2023/07/15 08:28:11;;;;;;;1.25;1.15;;;28.70;50.50;;;;;;5038211;28;20035;-81
2023/07/15 08:30:37;;;;;;;1.70;1.60;;;28.80;50.30;;;;;;5039712;28;20053;-80
2023/07/15 08:33:06;;;;;;;1.30;1.30;;;28.80;50.00;;;;;;5039690;28;20022;-81
2023/07/15 08:35:34;;;;;;;1.60;1.50;;;29.00;48.30;;;;;;5039704;28;20029;-81
2023/07/15 08:37:59;;;;;;;1.50;1.40;;;29.20;48.20;;;;;;5051674;28;20056;-80
2023/07/15 08:40:26;;;;;;;1.50;1.40;;;29.40;48.60;;;;;;5049172;28;20044;-78
2023/07/15 08:42:52;;;;;;;1.45;1.35;;;29.50;48.70;;;;;;5053426;28;20021;-79
2023/07/15 08:45:19;;;;;;;1.50;1.40;;;29.60;47.80;;;;;;5050890;28;20052;-82
2023/07/15 08:47:46;;;;;;;1.73;1.63;;;29.80;46.90;;;;;;5038035;28;20057;-80
2023/07/15 08:50:15;;;;;;;1.67;1.58;;;30.00;46.50;;;;;;5038877;28;20033;-79
2023/07/15 08:52:42;;;;;;;1.73;1.63;;;30.00;45.70;;;;;;5038323;28;20025;-82
2023/07/15 08:55:08;;;;;;;1.50;1.50;;;30.20;45.60;;;;;;5037411;28;20021;-79
2023/07/15 08:57:34;;;;;;;1.67;1.55;;;30.20;46.10;;;;;;5037182;28;20040;-80
2023/07/15 09:00:04;;;;;;;1.60;1.50;;;30.30;45.70;;;;;;5038820;28;20033;-80
2023/07/15 09:02:30;;;;;;;1.70;1.60;;;30.30;45.90;;;;;;5044382;28;20081;-80
2023/07/15 09:04:56;;;;;;;1.80;1.52;;;30.30;45.60;;;;;;5043196;28;20030;-79
2023/07/15 09:07:26;;;;;;;1.50;1.40;;;30.30;45.60;;;;;;5051545;28;20029;-78
2023/07/15 09:09:53;;;;;;;1.35;1.30;;;30.40;45.30;;;;;;5053558;28;20026;-79
2023/07/15 09:12:26;;;;;;;1.45;1.38;;;30.50;45.80;;;;;;5054621;28;20041;-77
2023/07/15 09:14:52;;;;;;;1.20;1.20;;;30.60;45.70;;;;;;5054149;28;20025;-77
2023/07/15 09:17:23;;;;;;;1.65;1.50;;;30.50;45.60;;;;;;5055019;28;20048;-77
2023/07/15 09:19:49;;;;;;;1.75;1.65;;;30.60;45.40;;;;;;5055425;28;20014;-77
2023/07/15 09:22:16;;;;;;;1.42;1.33;;;30.70;45.60;;;;;;5049360;28;20044;-80
2023/07/15 09:24:42;;;;;;;1.10;1.10;;;30.70;45.40;;;;;;5038077;28;20045;-79
2023/07/15 09:27:08;;;;;;;1.70;1.60;;;30.80;45.50;;;;;;5036183;28;20509;-79
2023/07/15 09:29:34;;;;;;;1.67;1.58;;;30.80;44.70;;;;;;5037577;28;20127;-80
2023/07/15 09:32:00;;;;;;;1.80;1.70;;;31.00;43.40;;;;;;5035445;28;20025;-81
2023/07/15 09:34:26;;;;;;;1.60;1.50;;;31.10;43.10;;;;;;5035560;28;20033;-81
2023/07/15 09:36:53;;;;;;;1.70;1.60;;;31.20;43.70;;;;;;5037143;28;20034;-82
2023/07/15 09:39:22;;;;;;;1.85;1.65;;;31.30;43.10;;;;;;5041088;28;20021;-79
2023/07/15 09:42:05;;;;;;;1.63;1.52;;;31.50;43.00;;;;;;5032442;28;20463;-82
2023/07/15 09:44:41;;;;;;;1.40;1.40;;;31.60;42.10;;;;;;5024513;28;20078;-81
2023/07/15 09:47:07;;;;;;;1.45;1.45;;;31.70;42.60;;;;;;5037494;28;20026;-82
2023/07/15 09:49:34;;;;;;;1.42;1.40;;;31.80;42.50;;;;;;5037998;28;20382;-81
2023/07/15 09:52:02;;;;;;;1.20;1.20;;;31.90;42.00;;;;;;5037636;28;20025;-82
2023/07/15 09:54:33;;;;;;;1.70;1.60;;;32.00;42.50;;;;;;5038174;28;20493;-80
2023/07/15 09:57:03;;;;;;;1.33;1.30;;;32.10;42.50;;;;;;5039912;28;20034;-80
2023/07/15 09:59:40;;;;;;;1.42;1.42;;;32.10;42.00;;;;;;5043286;28;20025;-81
2023/07/15 10:02:18;;;;;;;1.27;1.27;;;32.20;42.40;;;;;;5041446;28;20088;-81
2023/07/15 10:04:45;;;;;;;1.73;1.63;;;32.30;42.30;;;;;;5042960;28;20210;-81
2023/07/15 10:07:12;;;;;;;1.40;1.33;;;32.30;42.40;;;;;;5040378;28;20087;-78
2023/07/15 10:09:38;;;;;;;1.67;1.58;;;32.40;42.40;;;;;;5040176;28;20064;-80
2023/07/15 10:12:05;;;;;;;3.03;1.80;;;32.40;42.50;;;;;;5029537;28;20083;-81
2023/07/15 10:14:32;;;;;;;1.90;1.80;;;32.50;41.90;;;;;;5020518;28;20032;-81
2023/07/15 10:17:12;;;;;;;1.90;1.80;;;32.60;41.90;;;;;;5019808;28;20026;-82
2023/07/15 10:19:49;;;;;;;1.70;1.60;;;32.60;41.80;;;;;;5020392;28;20026;-80
2023/07/15 10:22:21;;;;;;;2.08;1.98;;;32.60;42.10;;;;;;5020808;28;20283;-81
2023/07/15 10:24:55;;;;;;;1.88;1.67;;;32.70;41.90;;;;;;5021834;28;20026;-80
2023/07/15 10:27:21;;;;;;;1.95;1.85;;;32.80;41.20;;;;;;5021918;28;20026;-81
2023/07/15 10:30:25;;;;;;;2.10;1.90;;;32.80;41.30;;;;;;5019784;28;20098;-80
2023/07/15 10:33:06;;;;;;;2.17;2.03;;;32.80;40.40;;;;;;5020146;28;20065;-80
2023/07/15 10:35:33;;;;;;;1.77;1.65;;;32.80;40.70;;;;;;5036435;28;20041;-79
2023/07/15 10:38:19;;;;;;;1.95;1.65;;;33.00;41.20;;;;;;5044250;28;20093;-80
2023/07/15 10:40:50;;;;;;;3.05;1.80;;;33.00;41.10;;;;;;5039096;28;20547;-81
2023/07/15 10:43:21;;;;;;;2.08;1.98;;;33.10;40.90;;;;;;5039877;28;20114;-80
2023/07/15 10:45:52;;;;;;;1.55;1.45;;;33.10;41.00;;;;;;5041337;28;20150;-81
2023/07/15 10:48:18;;;;;;;;;;;33.10;40.80;;;;;;5045705;28;20025;-80
2023/07/15 10:50:48;;;;;;;2.13;1.63;;;33.20;40.60;;;;;;5043074;28;19939;-80
2023/07/15 10:53:27;;;;;;;1.73;1.63;;;33.40;40.40;;;;;;5055496;28;20025;-80
2023/07/15 10:56:03;;;;;;;1.67;1.58;;;33.50;40.10;;;;;;5055661;28;20035;-78
2023/07/15 10:58:31;;;;;;;2.00;1.75;;;33.50;39.70;;;;;;5053839;28;20026;-79
2023/07/15 11:00:59;;;;;;;2.08;1.88;;;33.50;39.50;;;;;;5048972;28;20064;-78
2023/07/15 11:03:26;;;;;;;1.83;1.73;;;33.50;39.40;;;;;;5051761;28;20032;-79
2023/07/15 11:05:53;;;;;;;1.40;1.40;;;33.60;39.90;;;;;;5048735;28;20461;-81
2023/07/15 11:08:19;;;;;;;1.85;1.75;;;33.80;39.80;;;;;;5039751;28;20035;-81
2023/07/15 11:10:45;;;;;;;2.05;1.95;;;33.90;39.30;;;;;;5037889;28;20026;-81
2023/07/15 11:13:15;;;;;;;1.55;1.55;;;34.00;39.00;;;;;;5020303;28;20050;-81
2023/07/15 11:15:43;;;;;;;1.80;1.70;;;34.00;39.30;;;;;;5020191;28;20049;-80
2023/07/15 11:18:16;;;;;;;1.50;1.40;;;34.10;39.60;;;;;;5019900;28;20046;-80
2023/07/15 11:20:46;;;;;;;1.98;1.88;;;34.30;39.40;;;;;;5020086;28;20052;-81
2023/07/15 11:23:12;;;;;;;1.35;1.35;;;34.30;39.30;;;;;;5019636;28;20025;-80
2023/07/15 11:25:47;;;;;;;1.58;1.58;;;34.30;39.10;;;;;;5041621;28;20098;-80
2023/07/15 11:28:19;;;;;;;1.58;1.58;;;34.20;38.80;;;;;;5048039;28;20021;-79
2023/07/15 11:30:48;;;;;;;1.95;1.85;;;34.20;39.10;;;;;;5042139;28;20025;-78
2023/07/15 11:33:15;;;;;;;1.30;1.30;;;34.30;38.90;;;;;;5041669;28;20433;-79
2023/07/15 11:35:42;;;;;;;1.63;1.58;;;34.20;39.00;;;;;;5042463;28;20025;-78
2023/07/15 11:38:11;;;;;;;1.88;1.63;;;34.20;39.00;;;;;;5043363;28;20335;-79
2023/07/15 11:40:57;;;;;;;1.65;1.60;;;34.30;39.00;;;;;;5042450;28;20025;-78
2023/07/15 11:43:25;;;;;;;1.60;1.50;;;34.40;39.00;;;;;;5030265;28;20545;-78
2023/07/15 11:45:54;;;;;;;1.50;1.40;;;34.50;39.00;;;;;;5041605;28;20037;-80
2023/07/15 11:48:26;;;;;;;1.95;1.85;;;34.60;38.50;;;;;;5040234;28;20093;-79
2023/07/15 11:51:16;;;;;;;1.80;1.70;;;34.60;37.60;;;;;;5039600;28;20442;-80
2023/07/15 11:53:44;;;;;;;1.95;1.85;;;34.80;37.70;;;;;;5040471;28;20037;-80
2023/07/15 11:56:38;;;;;;;1.75;1.65;;;34.90;37.80;;;;;;5049063;28;20061;-83
2023/07/15 11:59:13;;;;;;;1.75;1.65;;;34.80;38.40;;;;;;5038869;28;20052;-78
2023/07/15 12:01:40;;;;;;;1.80;1.70;;;34.80;38.70;;;;;;5036163;28;20159;-77
2023/07/15 12:04:19;;;;;;;1.40;1.40;;;34.90;39.60;;;;;;5035729;28;20151;-79
2023/07/15 12:06:48;;;;;;;2.53;1.58;;;35.00;38.80;;;;;;5038895;28;20029;-79
2023/07/15 12:09:17;;;;;;;1.40;1.40;;;35.10;38.80;;;;;;5045088;28;20051;-78
2023/07/15 12:11:43;;;;;;;1.40;1.40;;;35.10;38.40;;;;;;5050187;28;20032;-77
2023/07/15 12:14:10;;;;;;;1.65;1.65;;;35.20;38.20;;;;;;5046245;28;20097;-78
2023/07/15 12:16:37;;;;;;;2.03;1.80;;;35.00;38.40;;;;;;5047809;28;20070;-79
2023/07/15 12:19:04;;;;;;;2.00;1.90;;;35.00;38.20;;;;;;5037216;28;20053;-78
2023/07/15 12:21:31;;;;;;;1.90;1.80;;;35.00;37.80;;;;;;5036438;28;20087;-79
2023/07/15 12:23:57;;;;;;;1.88;1.77;;;34.90;38.10;;;;;;5036612;28;20029;-79
2023/07/15 12:26:23;;;;;;;1.60;1.60;;;34.90;37.60;;;;;;5037043;28;20097;-78
2023/07/15 12:28:49;;;;;;;2.40;2.20;;;35.00;37.60;;;;;;5035684;28;20026;-78
2023/07/15 12:31:16;;;;;;;2.05;1.95;;;35.10;37.20;;;;;;5024613;28;20100;-78
2023/07/15 12:33:43;;;;;;;1.95;1.85;;;35.20;37.60;;;;;;5033930;28;20510;-78
2023/07/15 12:36:10;;;;;;;1.80;1.70;;;35.20;37.80;;;;;;5034419;28;20025;-79
2023/07/15 12:38:37;;;;;;;1.48;1.48;;;35.30;37.90;;;;;;5034810;28;20474;-77
2023/07/15 12:41:04;;;;;;;1.52;1.52;;;35.40;38.00;;;;;;5041192;28;20379;-77
2023/07/15 12:43:30;;;;;;;1.90;1.80;;;35.40;37.60;;;;;;5034350;28;20029;-77
2023/07/15 12:45:56;;;;;;;1.85;1.73;;;35.40;37.10;;;;;;5034532;28;20083;-78
2023/07/15 12:48:22;;;;;;;2.10;1.80;;;35.50;36.60;;;;;;5034033;28;20037;-77
2023/07/15 12:50:48;;;;;;;1.75;1.70;;;35.40;36.40;;;;;;5033317;28;20032;-78